Time;durP1;ratioP1;P1;durP2;ratioP2;P2;SDS_P1;SDS_P2;PMS_P1;PMS_P2;Temp;Humidity;BMP_temperature;BMP_pressure;BME280_temperature;BME280_humidity;BME280_pressure;Samples;Min_cycle;Max_cycle;Signal;HPM_P1;HPM_P2
2024/01/17 00:00:11;;;;;;;18.63;9.50;;;-5.60;85.60;;;-7.15;95.50;96797.75;5049423;28;20498;-70
2024/01/17 00:02:38;;;;;;;15.23;9.43;;;-5.60;85.90;;;-7.06;95.17;96793.50;5068186;28;20518;-71
2024/01/17 00:05:09;;;;;;;16.83;9.27;;;-5.50;86.00;;;-7.12;94.82;96785.22;5045156;28;20516;-72
2024/01/17 00:07:38;;;;;;;17.83;11.80;;;-5.60;85.40;;;-7.12;95.04;96787.84;5033575;28;20572;-73
2024/01/17 00:10:09;;;;;;;15.10;8.67;;;-5.60;85.90;;;-7.05;94.83;96790.75;5046934;28;20966;-72
2024/01/17 00:12:38;;;;;;;16.10;9.50;;;-5.60;86.10;;;-7.01;94.97;96791.31;5053412;28;20463;-72
2024/01/17 00:15:09;;;;;;;15.43;9.47;;;-5.50;86.20;;;-6.94;94.57;96783.72;5046019;28;20610;-69
2024/01/17 00:17:39;;;;;;;14.93;7.87;;;-5.40;86.10;;;-6.98;94.08;96781.34;5058192;28;20441;-74
2024/01/17 00:20:08;;;;;;;11.50;8.60;;;-5.40;85.30;;;-6.90;94.13;96772.81;5049797;28;20573;-71
2024/01/17 00:22:36;;;;;;;12.23;10.03;;;-5.40;85.20;;;-6.88;94.11;96770.88;5034310;28;20544;-73
2024/01/17 00:25:06;;;;;;;15.33;8.97;;;-5.40;84.90;;;-6.87;94.13;96767.28;5043650;28;20549;-72
2024/01/17 00:27:33;;;;;;;14.33;9.57;;;-5.40;84.60;;;-6.87;93.65;96769.91;5045923;28;20569;-73
2024/01/17 00:30:01;;;;;;;12.87;9.13;;;-5.40;84.10;;;-6.81;93.37;96767.69;5046022;28;20458;-71
2024/01/17 00:32:31;;;;;;;13.70;9.50;;;-5.30;84.00;;;-6.73;93.17;96759.97;5051924;28;20453;-73
2024/01/17 00:34:59;;;;;;;20.53;10.77;;;-5.30;83.80;;;-6.84;93.07;96751.25;5053574;28;20468;-74
2024/01/17 00:37:26;;;;;;;14.67;9.83;;;-5.30;83.10;;;-6.77;92.65;96742.81;5053500;28;20457;-73
2024/01/17 00:39:55;;;;;;;13.45;9.18;;;-5.30;83.30;;;-6.76;92.72;96741.84;5038113;28;20543;-72
2024/01/17 00:42:22;;;;;;;12.87;9.50;;;-5.30;83.10;;;-6.92;92.40;96732.72;5050735;28;20209;-72
2024/01/17 00:44:50;;;;;;;15.53;9.37;;;-5.20;82.70;;;-6.84;92.46;96724.97;5058948;28;20469;-73
2024/01/17 00:47:20;;;;;;;13.50;10.10;;;-5.30;82.40;;;-6.81;92.78;96725.66;5048501;28;20472;-72
2024/01/17 00:49:51;;;;;;;16.77;10.13;;;-5.30;82.30;;;-6.83;92.77;96731.88;5062651;28;20545;-71
2024/01/17 00:52:20;;;;;;;11.73;8.93;;;-5.30;82.50;;;-6.81;92.49;96723.03;5046004;28;20527;-72
2024/01/17 00:54:48;;;;;;;12.60;8.10;;;-5.30;82.30;;;-6.74;91.84;96726.78;5036940;28;20200;-72
2024/01/17 00:57:19;;;;;;;16.83;9.83;;;-5.20;82.20;;;-6.84;92.13;96721.50;5046573;28;20445;-69
2024/01/17 00:59:49;;;;;;;16.23;10.50;;;-5.30;81.80;;;-6.87;92.71;96720.00;5048463;28;20447;-73
2024/01/17 01:02:18;;;;;;;14.30;9.53;;;-5.30;82.10;;;-6.80;91.98;96714.19;5042098;28;20454;-72
2024/01/17 01:04:52;;;;;;;14.73;9.43;;;-5.30;81.50;;;-6.78;91.83;96707.84;5045359;28;20831;-72
2024/01/17 01:07:21;;;;;;;14.37;9.10;;;-5.30;81.80;;;-6.74;91.63;96703.97;5046527;28;20989;-73
2024/01/17 01:09:50;;;;;;;12.53;8.97;;;-5.30;81.60;;;-6.72;91.98;96707.28;5046942;28;20453;-73
2024/01/17 01:12:19;;;;;;;15.90;9.80;;;-5.20;81.60;;;-6.84;91.95;96703.97;5040334;28;20527;-72
2024/01/17 01:14:47;;;;;;;12.27;8.40;;;-5.30;81.30;;;-6.83;92.17;96700.38;5045855;28;20479;-72
2024/01/17 01:17:15;;;;;;;11.33;8.50;;;-5.30;81.50;;;-6.82;92.20;96693.34;5035519;28;20467;-70
2024/01/17 01:19:42;;;;;;;13.67;9.00;;;-5.30;81.60;;;-6.84;92.02;96685.56;5057122;28;20500;-72
2024/01/17 01:22:12;;;;;;;17.37;8.63;;;-5.30;81.60;;;-6.80;91.44;96693.19;5062455;28;21135;-73
2024/01/17 01:24:39;;;;;;;15.70;8.27;;;-5.30;80.90;;;-6.81;91.33;96699.41;5050346;28;20958;-73
2024/01/17 01:27:06;;;;;;;12.00;8.80;;;-5.30;80.90;;;-6.84;92.14;96703.13;5056199;28;20476;-72
2024/01/17 01:29:34;;;;;;;9.93;7.77;;;-5.40;80.80;;;-6.92;91.84;96690.69;5047486;28;20461;-72
2024/01/17 01:32:02;;;;;;;13.40;8.50;;;-5.40;81.30;;;-6.87;91.64;96703.41;5049080;28;20449;-73
2024/01/17 01:34:29;;;;;;;12.77;8.80;;;-5.40;81.60;;;-6.90;91.74;96701.91;5057709;28;20950;-74
2024/01/17 01:36:56;;;;;;;11.03;8.70;;;-5.40;81.20;;;-6.93;91.87;96696.09;5060722;28;21096;-72
2024/01/17 01:39:26;;;;;;;13.83;9.77;;;-5.40;81.20;;;-6.89;92.11;96700.94;5047062;28;20450;-72
2024/01/17 01:41:53;;;;;;;10.70;7.97;;;-5.40;81.50;;;-6.92;92.25;96705.63;5065508;28;20456;-74
2024/01/17 01:44:21;;;;;;;15.97;8.93;;;-5.40;81.10;;;-6.86;92.04;96711.16;5062434;28;20470;-72
2024/01/17 01:46:49;;;;;;;11.87;8.20;;;-5.40;81.50;;;-6.86;92.30;96705.91;5046835;28;20508;-72
2024/01/17 01:49:18;;;;;;;12.63;8.27;;;-5.40;81.70;;;-6.90;92.48;96703.69;5063441;28;21386;-72
2024/01/17 01:51:49;;;;;;;12.77;8.60;;;-5.30;81.80;;;-6.79;92.63;96694.84;5047662;28;20446;-73
2024/01/17 01:54:20;;;;;;;16.23;9.40;;;-5.30;82.10;;;-6.69;91.94;96685.16;5046744;28;20464;-71
2024/01/17 01:56:49;;;;;;;13.93;8.67;;;-5.20;81.90;;;-6.73;92.08;96683.78;5044042;28;20452;-72
2024/01/17 01:59:19;;;;;;;15.60;9.63;;;-5.20;81.50;;;-6.75;91.90;96669.94;5046830;28;20450;-73
2024/01/17 02:01:46;;;;;;;15.53;9.30;;;-5.10;81.60;;;-7.01;91.48;96602.25;5039501;28;20463;-70
2024/01/17 02:04:16;;;;;;;14.10;9.47;;;-5.10;81.70;;;-6.51;91.71;96676.56;5042617;28;20465;-73
2024/01/17 02:06:47;;;;;;;12.53;9.10;;;-5.00;81.80;;;-6.50;91.81;96673.81;5048285;28;20512;-73
2024/01/17 02:09:16;;;;;;;13.33;8.77;;;-4.90;81.50;;;-6.39;91.54;96654.41;5042893;28;20529;-70
2024/01/17 02:11:51;;;;;;;14.83;8.57;;;-4.80;81.70;;;-6.31;91.06;96651.88;5049793;28;20461;-73
2024/01/17 02:14:19;;;;;;;13.90;9.07;;;-4.80;80.70;;;-6.17;90.19;96662.91;5046594;28;20485;-74
2024/01/17 02:16:47;;;;;;;15.03;8.80;;;-4.70;80.10;;;-6.20;90.21;96655.31;5039687;28;20451;-72
2024/01/17 02:19:18;;;;;;;14.47;9.83;;;-4.70;79.80;;;-6.28;90.04;96666.53;5025295;28;20544;-70
2024/01/17 02:21:45;;;;;;;15.37;9.67;;;-4.70;79.40;;;-6.29;90.12;96644.69;5039476;28;20469;-72
2024/01/17 02:24:28;;;;;;;14.53;9.07;;;-4.70;79.20;;;-6.21;89.87;96653.66;5052038;28;20966;-72
2024/01/17 02:26:59;;;;;;;12.50;8.67;;;-4.70;79.30;;;-6.23;89.74;96642.47;5040463;28;20480;-71
2024/01/17 02:29:27;;;;;;;14.67;9.47;;;-4.70;79.10;;;-6.34;89.83;96625.06;5046003;28;20476;-70
2024/01/17 02:31:55;;;;;;;16.90;9.13;;;-4.70;79.10;;;-6.31;89.93;96622.94;5050854;28;20472;-70
2024/01/17 02:34:23;;;;;;;12.73;8.30;;;-4.70;79.20;;;-6.33;89.70;96619.63;5062459;28;20461;-72
2024/01/17 02:36:50;;;;;;;11.33;8.40;;;-4.80;79.10;;;-6.38;90.10;96618.41;5043024;28;21068;-72
2024/01/17 02:39:19;;;;;;;11.87;8.63;;;-4.80;79.20;;;-6.40;90.47;96613.31;5045960;28;20464;-71
2024/01/17 02:41:45;;;;;;;11.57;9.20;;;-4.80;79.50;;;-6.30;90.17;96610.66;5040194;28;20571;-70
2024/01/17 02:44:12;;;;;;;12.87;9.03;;;-4.80;79.70;;;-6.33;90.25;96618.84;5041206;28;20497;-69
2024/01/17 02:46:39;;;;;;;17.83;9.67;;;-4.80;79.50;;;-6.42;90.69;96608.19;5039501;28;20525;-71
2024/01/17 02:49:08;;;;;;;14.03;8.40;;;-4.90;79.40;;;-6.45;90.63;96599.75;5062508;28;20949;-73
2024/01/17 02:51:35;;;;;;;12.53;9.30;;;-4.90;79.70;;;-6.47;90.65;96593.81;5053347;28;20445;-71
2024/01/17 02:54:05;;;;;;;12.97;9.10;;;-4.90;79.80;;;-6.42;90.41;96599.50;5034032;28;20466;-74
2024/01/17 02:56:37;;;;;;;12.47;8.60;;;-4.90;79.90;;;-6.43;90.52;96595.22;5049256;28;20454;-72
2024/01/17 02:59:07;;;;;;;12.60;9.10;;;-4.80;79.60;;;-6.36;90.54;96591.03;5059422;28;20906;-72
2024/01/17 03:01:36;;;;;;;18.37;9.80;;;-4.80;79.70;;;-6.35;90.27;96592.69;5041170;28;21359;-71
2024/01/17 03:04:04;;;;;;;14.23;9.23;;;-4.80;79.80;;;-6.81;90.28;96502.38;5036025;28;20473;-71
2024/01/17 03:06:33;;;;;;;16.50;9.80;;;-4.80;79.70;;;-6.36;90.56;96570.00;5042613;28;20480;-72
2024/01/17 03:09:00;;;;;;;12.50;9.37;;;-4.80;79.70;;;-6.31;90.50;96573.00;5027579;28;20575;-72
2024/01/17 03:11:27;;;;;;;14.40;8.37;;;-4.80;80.00;;;-6.37;90.57;96568.34;5059954;28;20453;-72
2024/01/17 03:13:56;;;;;;;13.57;9.80;;;-4.80;79.70;;;-6.31;90.44;96567.75;5061602;28;20461;-73
2024/01/17 03:16:24;;;;;;;15.27;9.80;;;-4.70;79.70;;;-6.16;89.95;96560.22;5045695;28;20541;-72
2024/01/17 03:18:52;;;;;;;14.83;8.67;;;-4.70;79.60;;;-6.23;89.71;96545.97;5046310;28;20478;-72
2024/01/17 03:21:21;;;;;;;12.10;8.53;;;-4.70;79.10;;;-6.21;89.77;96537.97;5063502;28;20464;-68
2024/01/17 03:23:48;;;;;;;19.67;10.07;;;-4.70;79.00;;;-6.29;90.21;96536.06;5045411;28;20460;-71
2024/01/17 03:26:18;;;;;;;15.23;9.07;;;-4.70;79.30;;;-6.64;89.98;96456.97;5034361;28;21029;-69
2024/01/17 03:28:45;;;;;;;15.33;8.63;;;-4.70;79.40;;;-6.19;90.03;96538.63;5031772;28;20481;-72
2024/01/17 03:31:14;;;;;;;13.37;9.50;;;-4.70;79.50;;;-6.10;89.99;96522.00;5052326;28;20458;-72
2024/01/17 03:33:42;;;;;;;14.48;9.27;;;-4.60;79.70;;;-6.02;89.51;96516.00;5044114;28;20468;-73
2024/01/17 03:36:10;;;;;;;13.50;9.60;;;-4.50;79.50;;;-6.09;89.35;96513.13;5056289;28;20526;-72
2024/01/17 03:38:37;;;;;;;13.67;9.00;;;-4.60;79.00;;;-6.13;89.19;96488.91;5034549;28;21162;-72
2024/01/17 03:41:08;;;;;;;12.40;10.53;;;-4.50;79.10;;;-5.94;88.51;96504.69;5043358;28;20467;-72
2024/01/17 03:43:38;;;;;;;14.60;9.60;;;-4.40;78.90;;;-5.97;88.81;96496.13;5045330;28;20477;-71
2024/01/17 03:46:07;;;;;;;17.10;10.30;;;-4.50;78.60;;;-5.94;88.50;96496.81;5042450;28;20980;-71
2024/01/17 03:48:35;;;;;;;14.80;9.90;;;-4.40;78.40;;;-5.89;88.46;96486.66;5040836;28;20473;-72
2024/01/17 03:51:04;;;;;;;14.57;10.13;;;-4.40;78.60;;;-5.89;88.53;96484.03;5046814;28;20523;-71
2024/01/17 03:53:32;;;;;;;14.30;9.67;;;-4.40;78.30;;;-5.79;87.83;96482.16;5040873;28;20473;-72
2024/01/17 03:55:59;;;;;;;19.90;10.90;;;-4.30;78.00;;;-5.93;87.72;96472.16;5048319;28;20450;-72
2024/01/17 03:58:27;;;;;;;14.03;10.03;;;-4.40;77.60;;;-5.92;88.10;96465.91;5038213;28;20453;-71
2024/01/17 04:00:57;;;;;;;12.97;9.57;;;-4.40;77.60;;;-5.87;88.23;96463.66;5042762;28;20478;-72
2024/01/17 04:03:25;;;;;;;18.93;10.80;;;-4.40;77.70;;;-6.02;88.62;96455.50;5043589;28;20489;-71
2024/01/17 04:06:07;;;;;;;16.30;10.90;;;-4.50;77.90;;;-6.05;88.89;96445.28;5045735;28;21241;-74
2024/01/17 04:08:35;;;;;;;17.57;9.93;;;-4.50;78.00;;;-6.05;88.88;96435.56;5036274;28;20473;-70
2024/01/17 04:11:03;;;;;;;16.73;10.50;;;-4.50;78.10;;;-6.04;88.52;96437.22;5040216;28;20471;-71
2024/01/17 04:13:31;;;;;;;16.10;10.50;;;-4.50;78.10;;;-6.05;89.02;96435.56;5058729;28;20618;-72
2024/01/17 04:16:00;;;;;;;14.20;10.40;;;-4.60;78.20;;;-6.14;89.21;96416.25;5043224;28;20454;-71
2024/01/17 04:18:30;;;;;;;13.70;10.43;;;-4.50;78.30;;;-6.14;88.98;96415.41;5071618;28;20447;-73
2024/01/17 04:21:01;;;;;;;14.07;9.53;;;-4.60;78.10;;;-6.14;88.79;96412.78;5044511;28;20451;-71
2024/01/17 04:23:28;;;;;;;13.27;9.13;;;-4.60;78.10;;;-6.28;89.12;96409.72;5047130;28;20454;-71
2024/01/17 04:25:56;;;;;;;17.67;10.63;;;-4.60;78.10;;;-6.28;89.67;96409.72;5044499;28;20459;-72
2024/01/17 04:28:24;;;;;;;15.10;8.90;;;-4.70;78.40;;;-6.13;89.35;96406.59;5052713;28;20978;-71
2024/01/17 04:30:51;;;;;;;17.47;10.50;;;-4.70;78.60;;;-6.26;89.48;96405.16;5044873;28;20834;-71
2024/01/17 04:33:19;;;;;;;11.50;9.57;;;-4.70;78.40;;;-6.23;89.61;96396.13;5044636;28;20457;-71
2024/01/17 04:35:47;;;;;;;12.53;9.80;;;-4.70;79.00;;;-6.16;89.50;96401.59;5041131;28;20477;-70
2024/01/17 04:38:16;;;;;;;14.70;10.90;;;-4.70;79.00;;;-6.15;89.74;96398.84;5045962;28;20453;-72
2024/01/17 04:41:02;;;;;;;15.80;9.43;;;-4.70;79.00;;;-6.16;89.54;96396.34;5044021;28;21906;-72
2024/01/17 04:43:30;;;;;;;13.43;9.40;;;-4.60;79.20;;;-6.16;89.48;96404.22;5056253;28;20501;-74
2024/01/17 04:45:57;;;;;;;15.70;10.57;;;-4.60;79.00;;;-6.08;89.35;96388.53;5036329;28;20465;-73
2024/01/17 04:48:24;;;;;;;13.30;9.30;;;-4.60;79.10;;;-6.06;88.82;96381.31;5044273;28;21315;-73
2024/01/17 04:50:58;;;;;;;18.13;10.57;;;-4.50;78.70;;;-5.96;89.58;96375.94;5064173;28;20459;-72
2024/01/17 04:53:28;;;;;;;16.03;10.63;;;-4.40;79.00;;;-5.99;90.09;96365.72;5040635;28;20569;-72
2024/01/17 04:55:56;;;;;;;18.23;10.20;;;-4.50;79.50;;;-5.85;89.21;96364.34;5043981;28;20934;-69
2024/01/17 04:58:23;;;;;;;12.33;10.10;;;-4.40;78.80;;;-5.75;88.94;96362.47;5043831;28;21083;-71
2024/01/17 05:00:50;;;;;;;16.17;10.43;;;-4.30;78.80;;;-5.84;88.48;96337.91;5040836;28;20593;-73
2024/01/17 05:03:19;;;;;;;14.90;10.37;;;-4.20;78.40;;;-5.79;89.14;96366.38;5044839;28;20476;-72
2024/01/17 05:05:46;;;;;;;14.43;10.13;;;-4.30;78.30;;;-5.72;88.90;96356.09;5048984;28;20523;-71
2024/01/17 05:08:15;;;;;;;16.40;9.80;;;-4.20;78.40;;;-5.71;88.70;96348.00;5046990;28;20478;-72
2024/01/17 05:10:45;;;;;;;12.23;9.20;;;-4.10;78.30;;;-5.64;88.33;96347.41;5061778;28;20531;-73
2024/01/17 05:13:13;;;;;;;14.30;10.57;;;-4.10;78.40;;;-5.76;89.28;96352.09;5038624;28;20457;-72
2024/01/17 05:15:41;;;;;;;14.27;9.60;;;-4.10;78.10;;;-5.70;88.93;96348.84;5042589;28;20461;-69
2024/01/17 05:18:10;;;;;;;14.00;11.20;;;-4.10;78.40;;;-5.74;89.00;96350.16;5050281;28;20508;-73
2024/01/17 05:20:39;;;;;;;11.70;9.87;;;-4.20;78.40;;;-5.67;89.15;96337.19;5047988;28;20445;-72
2024/01/17 05:23:06;;;;;;;15.50;9.70;;;-4.10;78.60;;;-5.76;89.47;96317.88;5047073;28;20449;-72
2024/01/17 05:25:35;;;;;;;19.60;10.83;;;-4.20;78.50;;;-5.74;89.44;96315.94;5040149;28;20446;-72
2024/01/17 05:28:07;;;;;;;16.20;9.83;;;-4.10;78.80;;;-5.79;90.02;96307.66;5044881;28;20477;-71
2024/01/17 05:30:36;;;;;;;17.30;11.03;;;-4.20;79.00;;;-5.60;89.58;96307.47;5046257;28;20465;-71
2024/01/17 05:33:06;;;;;;;15.90;10.43;;;-4.10;79.10;;;-5.56;89.71;96331.66;5041737;28;20461;-74
2024/01/17 05:35:34;;;;;;;19.30;10.73;;;-4.00;79.00;;;-5.53;89.39;96294.53;5049782;28;21138;-74
2024/01/17 05:38:01;;;;;;;20.03;11.20;;;-4.00;78.90;;;-5.32;89.16;96298.56;5042994;28;20849;-72
2024/01/17 05:40:29;;;;;;;17.63;11.57;;;-3.90;79.00;;;-5.31;88.88;96292.31;5047872;28;20453;-77
2024/01/17 05:42:56;;;;;;;18.40;11.50;;;-3.80;78.80;;;-5.31;88.97;96287.03;5066032;28;20974;-77
2024/01/17 05:45:25;;;;;;;13.17;11.07;;;-3.70;78.60;;;-5.17;88.46;96278.53;5040658;28;21233;-75
2024/01/17 05:47:52;;;;;;;16.07;10.97;;;-3.60;78.40;;;-5.01;87.94;96261.94;5046076;28;20600;-74
2024/01/17 05:50:20;;;;;;;15.43;10.30;;;-3.50;78.60;;;-4.88;87.19;96266.78;5046436;28;20840;-75
2024/01/17 05:52:48;;;;;;;12.43;9.50;;;-3.40;78.10;;;-4.87;87.24;96265.78;5045443;28;20883;-80
2024/01/17 05:55:19;;;;;;;17.03;11.20;;;-3.40;78.00;;;-4.88;87.64;96250.13;5048819;28;20450;-76
2024/01/17 05:57:47;;;;;;;15.40;11.07;;;-3.30;77.80;;;-4.76;87.03;96248.03;5045300;28;20951;-79
2024/01/17 06:00:18;;;;;;;16.43;10.20;;;-3.30;77.70;;;-4.80;87.02;96251.97;5055014;28;20532;-74
2024/01/17 06:02:46;;;;;;;16.50;11.57;;;-3.30;77.40;;;-4.75;86.71;96239.94;5039487;28;20824;-77
2024/01/17 06:05:15;;;;;;;15.07;10.03;;;-3.30;77.30;;;-4.69;86.80;96249.03;5039301;28;20445;-77
2024/01/17 06:07:44;;;;;;;12.90;9.60;;;-3.20;77.40;;;-4.64;86.14;96228.25;5038524;28;20458;-74
2024/01/17 06:10:13;;;;;;;15.03;10.10;;;-3.20;77.10;;;-5.21;85.76;96127.13;5052528;28;20446;-75
2024/01/17 06:12:41;;;;;;;21.33;9.03;;;-3.10;77.00;;;-4.48;85.42;96224.81;5038997;28;20477;-74
2024/01/17 06:15:11;;;;;;;14.10;10.07;;;-3.10;77.10;;;-4.43;85.38;96221.69;5056357;28;20976;-73
2024/01/17 06:17:38;;;;;;;12.70;9.60;;;-3.00;77.10;;;-4.55;86.20;96195.66;5046008;28;20447;-76
2024/01/17 06:20:11;;;;;;;13.30;9.77;;;-3.00;76.90;;;-4.20;85.76;96207.81;5042584;28;20461;-73
2024/01/17 06:22:38;;;;;;;12.03;9.10;;;-2.90;77.10;;;-4.25;85.00;96203.03;5035829;28;20470;-74
2024/01/17 06:25:08;;;;;;;13.17;8.70;;;-2.80;76.60;;;-4.13;84.46;96203.53;5060174;28;20538;-73
2024/01/17 06:27:37;;;;;;;17.40;10.30;;;-2.70;76.60;;;-4.21;84.79;96206.16;5059392;28;21421;-74
2024/01/17 06:30:07;;;;;;;15.23;10.83;;;-2.70;76.50;;;-4.05;84.41;96200.88;5044909;28;20559;-71
2024/01/17 06:32:36;;;;;;;14.63;11.20;;;-2.70;76.50;;;-4.02;84.29;96189.16;5037715;28;21524;-73
2024/01/17 06:35:04;;;;;;;13.50;9.93;;;-2.60;76.30;;;-4.01;84.14;96170.53;5052290;28;20464;-74
2024/01/17 06:37:34;;;;;;;11.27;9.80;;;-2.50;76.30;;;-4.21;83.79;96148.16;5042026;28;20455;-73
2024/01/17 06:40:01;;;;;;;13.07;9.83;;;-2.50;76.10;;;-3.82;84.28;96183.50;5034609;28;20459;-74
2024/01/17 06:42:28;;;;;;;15.57;10.53;;;-2.40;76.10;;;-3.71;84.17;96186.63;5035306;28;20542;-75
2024/01/17 06:44:56;;;;;;;14.97;10.50;;;-2.30;76.30;;;-3.81;83.67;96182.50;5040019;28;20540;-75
2024/01/17 06:47:27;;;;;;;12.70;10.67;;;-2.40;76.10;;;-3.74;83.69;96188.75;5034471;28;20541;-73
2024/01/17 06:49:54;;;;;;;14.87;12.00;;;-2.30;76.30;;;-3.65;83.28;96181.63;5037408;28;20478;-73
2024/01/17 06:52:22;;;;;;;14.10;11.03;;;-2.20;76.10;;;-3.70;83.89;96166.31;5022498;28;20981;-72
2024/01/17 06:54:50;;;;;;;14.33;9.40;;;-2.30;75.90;;;-3.44;84.19;96170.50;5041680;28;20459;-75
2024/01/17 06:57:18;;;;;;;14.67;9.90;;;-2.10;76.50;;;-3.48;83.54;96167.38;5041518;28;20636;-73
2024/01/17 06:59:46;;;;;;;16.47;10.63;;;-2.10;76.20;;;-3.39;83.82;96167.34;5039036;28;20471;-74
2024/01/17 07:02:16;;;;;;;12.00;9.17;;;-2.00;76.40;;;-3.35;83.30;96173.91;5043642;28;20550;-70
2024/01/17 07:04:45;;;;;;;15.47;9.47;;;-2.00;76.10;;;-3.27;83.38;96156.19;5051799;28;20454;-71
2024/01/17 07:07:13;;;;;;;12.23;9.57;;;-1.90;76.10;;;-3.19;83.16;96157.97;5045927;28;20789;-73
2024/01/17 07:09:43;;;;;;;13.37;10.03;;;-1.80;76.40;;;-3.22;82.86;96154.84;5043148;28;20955;-70
2024/01/17 07:12:12;;;;;;;13.67;10.67;;;-1.80;75.60;;;-3.13;82.41;96145.88;5041244;28;20473;-72
2024/01/17 07:14:39;;;;;;;13.57;9.20;;;-1.80;75.80;;;-3.13;82.71;96144.06;5049059;28;20502;-72
2024/01/17 07:17:08;;;;;;;15.93;10.33;;;-1.70;75.70;;;-3.03;82.80;96140.38;5045350;28;20491;-72
2024/01/17 07:19:37;;;;;;;16.10;11.30;;;-1.70;75.70;;;-3.04;82.47;96112.31;5035424;28;20462;-71
2024/01/17 07:22:09;;;;;;;13.50;9.83;;;-1.60;75.90;;;-2.94;82.20;96133.22;5030651;28;20454;-71
2024/01/17 07:24:37;;;;;;;16.27;10.20;;;-1.50;75.60;;;-2.95;82.28;96116.53;5060852;28;20503;-71
2024/01/17 07:27:06;;;;;;;19.20;10.73;;;-1.50;75.70;;;-2.92;82.76;96118.81;5039828;28;20889;-76
2024/01/17 07:29:36;;;;;;;13.57;10.33;;;-1.50;75.80;;;-2.82;82.78;96115.09;5040557;28;21136;-71
2024/01/17 07:32:05;;;;;;;13.90;10.10;;;-1.40;75.90;;;-2.61;82.14;96109.97;5057426;28;21017;-72
2024/01/17 07:34:34;;;;;;;15.40;10.80;;;-1.30;76.00;;;-2.58;81.90;96106.97;5040820;28;20444;-70
2024/01/17 07:37:02;;;;;;;19.80;11.30;;;-1.20;75.60;;;-2.44;81.55;96096.59;5034208;28;20458;-70
2024/01/17 07:39:32;;;;;;;18.27;10.73;;;-1.10;75.90;;;-2.23;81.47;96092.41;5045994;28;20978;-72
2024/01/17 07:42:03;;;;;;;11.37;10.03;;;-1.00;75.80;;;-2.21;81.08;96085.94;5042525;28;20504;-70
2024/01/17 07:44:32;;;;;;;15.13;10.77;;;-0.90;75.80;;;-2.24;81.72;96088.97;5039979;28;20560;-70
2024/01/17 07:47:04;;;;;;;15.23;11.27;;;-1.00;75.70;;;-2.32;81.90;96047.53;5025317;28;20822;-72
2024/01/17 07:49:38;;;;;;;16.90;12.27;;;-0.90;76.00;;;-2.16;82.47;96067.69;5058926;28;20539;-71
2024/01/17 07:52:12;;;;;;;15.63;11.43;;;-0.90;76.10;;;-2.22;83.82;96065.78;5014849;28;20454;-72
2024/01/17 07:54:43;;;;;;;13.60;11.10;;;-0.90;76.70;;;-2.22;85.26;96079.00;5040785;28;21007;-71
2024/01/17 07:57:12;;;;;;;19.00;12.90;;;-0.90;77.30;;;-2.09;84.74;96045.78;5035743;28;20452;-72
2024/01/17 07:59:43;;;;;;;15.93;12.00;;;-0.80;77.60;;;-2.09;85.95;96043.97;5040707;28;20452;-73
2024/01/17 08:02:12;;;;;;;16.70;11.97;;;-0.80;78.00;;;-2.10;86.86;96044.97;5027516;28;21146;-73
2024/01/17 08:04:43;;;;;;;14.73;12.53;;;-0.80;78.40;;;-2.10;87.37;96044.97;5043153;28;20450;-76
2024/01/17 08:07:11;;;;;;;15.10;12.93;;;-0.80;79.10;;;-2.12;87.98;96052.28;5053701;28;20957;-73
2024/01/17 08:09:40;;;;;;;15.57;12.50;;;-0.70;79.50;;;-1.95;87.99;96042.31;5048870;28;21029;-75
2024/01/17 08:12:10;;;;;;;19.87;13.33;;;-0.70;80.00;;;-2.01;88.65;96038.56;5042848;28;20504;-74
2024/01/17 08:14:37;;;;;;;16.63;13.10;;;-0.70;80.50;;;-2.05;89.56;96033.84;5036229;28;20793;-72
2024/01/17 08:17:07;;;;;;;15.53;13.23;;;-0.60;81.00;;;-2.11;90.35;96024.00;5039112;28;20470;-73
2024/01/17 08:19:36;;;;;;;18.40;13.23;;;-0.70;81.40;;;-1.98;90.38;96031.28;5045848;28;20863;-75
2024/01/17 08:22:04;;;;;;;14.97;13.03;;;-0.70;82.00;;;-1.89;90.41;96019.59;5057113;28;20455;-75
2024/01/17 08:24:31;;;;;;;15.03;12.10;;;-0.60;82.50;;;-1.99;91.22;96019.84;5044526;28;20446;-74
2024/01/17 08:26:59;;;;;;;18.30;13.27;;;-0.60;82.80;;;-2.11;92.19;96016.84;5054394;28;20460;-73
2024/01/17 08:29:30;;;;;;;18.57;13.70;;;-0.70;83.20;;;-1.92;92.21;96004.03;5057234;28;20480;-75
2024/01/17 08:31:57;;;;;;;18.17;13.77;;;-0.60;84.50;;;-1.84;92.50;96001.31;5040794;28;20868;-77
2024/01/17 08:34:26;;;;;;;17.90;13.73;;;-0.50;84.50;;;-1.71;92.17;96003.25;5044329;28;20489;-74
2024/01/17 08:36:55;;;;;;;20.17;13.73;;;-0.40;84.90;;;-1.74;92.22;96012.44;5039072;28;20457;-76
2024/01/17 08:39:24;;;;;;;19.83;14.50;;;-0.40;84.50;;;-1.71;92.51;95988.22;5036647;28;20462;-75
2024/01/17 08:41:51;;;;;;;17.87;14.33;;;-0.40;84.80;;;-1.54;92.80;95980.03;5032721;28;20980;-73
2024/01/17 08:44:18;;;;;;;19.70;15.10;;;-0.30;85.70;;;-1.76;93.36;95966.75;5057709;28;20497;-74
2024/01/17 08:46:48;;;;;;;23.10;17.23;;;-0.30;85.00;;;-1.67;94.17;95969.28;5042104;28;20460;-71
2024/01/17 08:49:15;;;;;;;22.20;16.63;;;-0.30;86.20;;;-1.83;94.39;95954.44;5040621;28;20482;-73
2024/01/17 08:51:42;;;;;;;20.90;15.40;;;-0.40;86.00;;;-1.64;94.99;95955.66;5055025;28;20521;-78
2024/01/17 08:54:11;;;;;;;17.90;14.77;;;-0.30;87.50;;;-1.50;93.75;95954.78;5052782;28;20453;-73
2024/01/17 08:56:38;;;;;;;20.70;16.03;;;-0.20;87.30;;;-1.49;94.30;95950.31;5036106;28;20440;-76
2024/01/17 08:59:06;;;;;;;18.77;15.20;;;-0.10;87.10;;;-1.26;93.89;95955.41;5035695;28;20458;-73
2024/01/17 09:01:33;;;;;;;16.37;13.40;;;0.00;87.50;;;-1.58;94.01;95933.75;5038581;28;20464;-72
2024/01/17 09:04:01;;;;;;;21.60;15.70;;;0.00;86.60;;;-1.62;96.85;95945.69;5042518;28;20473;-76
2024/01/17 09:06:28;;;;;;;22.70;16.27;;;-0.20;88.10;;;-1.50;97.03;95941.53;5045772;28;20488;-74
2024/01/17 09:08:56;;;;;;;21.23;15.10;;;-0.20;90.00;;;-1.49;97.75;95937.06;5064071;28;20801;-75
2024/01/17 09:11:25;;;;;;;24.33;17.43;;;-0.10;90.10;;;-1.45;97.88;95936.47;5046813;28;20471;-77
2024/01/17 09:13:52;;;;;;;23.37;17.57;;;-0.10;90.50;;;-1.31;98.05;95931.28;5043430;28;20462;-76
2024/01/17 09:16:20;;;;;;;22.97;16.77;;;-0.10;90.70;;;-1.32;97.81;95919.06;5040017;28;20448;-74
2024/01/17 09:18:47;;;;;;;22.67;16.70;;;0.00;90.80;;;-1.41;98.51;95926.34;5047855;28;20461;-73
2024/01/17 09:21:14;;;;;;;24.43;17.57;;;0.00;90.50;;;-1.20;98.78;95919.38;5047976;28;20524;-74
2024/01/17 09:23:44;;;;;;;23.30;16.07;;;0.10;91.10;;;-1.36;97.86;95915.16;5045714;28;20456;-75
2024/01/17 09:26:12;;;;;;;27.27;18.60;;;0.10;90.40;;;-1.20;99.34;95912.22;5050629;28;20616;-75
2024/01/17 09:28:41;;;;;;;24.30;17.57;;;0.10;91.40;;;-1.08;99.30;95903.75;5039989;28;20463;-75
2024/01/17 09:31:08;;;;;;;23.17;18.10;;;0.20;91.60;;;-1.03;98.59;95901.34;5044480;28;20824;-74
2024/01/17 09:33:37;;;;;;;21.13;17.17;;;0.30;91.20;;;-1.07;98.81;95889.47;5036464;28;20488;-74
2024/01/17 09:36:05;;;;;;;25.07;16.10;;;0.30;91.30;;;-0.70;98.46;95887.44;5044996;28;20462;-73
2024/01/17 09:38:33;;;;;;;25.20;17.40;;;0.50;91.70;;;-0.76;98.09;95894.38;5042056;28;20467;-74
2024/01/17 09:41:01;;;;;;;19.87;16.57;;;0.50;91.00;;;-0.77;99.41;95891.91;5064914;28;20455;-75
2024/01/17 09:43:28;;;;;;;23.50;16.80;;;0.50;91.20;;;-0.98;98.40;95813.28;5040929;28;20461;-83
2024/01/17 09:46:02;;;;;;;21.03;16.47;;;0.70;91.70;;;-0.51;98.13;95895.72;5044465;28;20570;-74
2024/01/17 09:48:30;;;;;;;20.70;15.70;;;0.80;91.30;;;-0.44;98.04;95880.63;5048177;28;20457;-78
2024/01/17 09:50:58;;;;;;;19.50;16.73;;;0.80;91.20;;;-0.40;97.91;95873.91;5032976;28;20508;-74
2024/01/17 09:53:30;;;;;;;19.60;15.67;;;0.90;91.20;;;-0.33;96.91;95858.84;5040659;28;20969;-74
2024/01/17 09:55:59;;;;;;;21.57;16.90;;;1.00;90.80;;;-0.46;98.13;95859.59;5052064;28;21256;-74
2024/01/17 09:58:32;;;;;;;26.73;17.50;;;1.00;90.40;;;-0.19;98.90;95869.50;5040804;28;20466;-75
2024/01/17 10:01:04;;;;;;;21.80;17.37;;;1.00;91.30;;;0.07;96.24;95863.41;5043065;28;20456;-76
2024/01/17 10:03:34;;;;;;;23.33;16.33;;;1.30;90.90;;;-0.28;97.14;95805.16;5045120;28;20537;-77
2024/01/17 10:06:03;;;;;;;24.80;18.10;;;1.20;90.60;;;0.17;96.13;95852.41;5039290;28;20460;-75
2024/01/17 10:08:33;;;;;;;22.70;16.20;;;1.40;90.40;;;0.02;96.66;95811.94;5039348;28;20523;-72
2024/01/17 10:11:01;;;;;;;22.27;16.60;;;1.40;90.10;;;0.52;94.65;95844.22;5051164;28;20586;-75
2024/01/17 10:13:30;;;;;;;19.93;17.07;;;1.60;89.80;;;0.27;95.51;95826.25;5058240;28;20468;-74
2024/01/17 10:16:04;;;;;;;22.43;16.30;;;1.60;89.30;;;0.27;96.00;95844.03;5049719;28;20947;-74